createdAt,value
2022-11-20T00:01:07.825Z,62.29
2022-11-20T00:03:35.467Z,62.19
2022-11-20T00:06:08.322Z,62.24
2022-11-20T00:08:35.627Z,62.33
2022-11-20T00:11:15.474Z,62.18
2022-11-20T00:13:48.010Z,62.10
2022-11-20T00:16:17.721Z,62.18
2022-11-20T00:18:45.873Z,62.27
2022-11-20T00:21:16.005Z,62.30
2022-11-20T00:23:43.693Z,62.36
2022-11-20T00:26:13.408Z,62.29
2022-11-20T00:28:40.989Z,62.34
2022-11-20T00:31:11.366Z,62.38
2022-11-20T00:33:38.390Z,62.40
2022-11-20T00:36:07.996Z,62.42
2022-11-20T00:38:35.915Z,62.29
2022-11-20T00:41:06.061Z,62.47
2022-11-20T00:43:33.366Z,62.58
2022-11-20T00:46:06.381Z,62.52
2022-11-20T00:48:34.093Z,62.60
2022-11-20T00:51:01.767Z,62.63
2022-11-20T00:53:28.904Z,62.71
2022-11-20T00:56:05.834Z,62.60
2022-11-20T00:58:37.289Z,62.44
2022-11-20T01:01:06.850Z,62.60
2022-11-20T01:03:40.829Z,62.67
2022-11-20T01:06:13.003Z,62.62
2022-11-20T01:08:40.481Z,62.56
2022-11-20T01:11:10.908Z,62.64
2022-11-20T01:13:38.314Z,62.65
2022-11-20T01:16:05.578Z,62.50
2022-11-20T01:18:32.745Z,62.66
2022-11-20T01:21:05.576Z,62.69
2022-11-20T01:23:34.443Z,62.62
2022-11-20T01:26:06.150Z,62.74
2022-11-20T01:28:33.788Z,62.62
2022-11-20T01:31:01.630Z,62.60
2022-11-20T01:33:29.187Z,62.74
2022-11-20T01:36:05.506Z,62.67
2022-11-20T01:38:32.631Z,62.90
2022-11-20T01:40:59.959Z,62.71
2022-11-20T01:43:27.446Z,62.69
2022-11-20T01:46:20.374Z,62.72
2022-11-20T01:49:21.289Z,62.84
2022-11-20T01:51:53.356Z,62.78
2022-11-20T01:54:26.727Z,62.80
2022-11-20T01:57:00.688Z,62.74
2022-11-20T01:59:30.169Z,62.73
2022-11-20T02:01:58.013Z,62.69
2022-11-20T02:04:25.929Z,62.77
2022-11-20T02:07:00.605Z,62.74
2022-11-20T02:09:29.067Z,62.85
2022-11-20T02:11:56.648Z,62.87
2022-11-20T02:14:24.779Z,62.78
2022-11-20T02:16:52.305Z,62.69
2022-11-20T02:19:27.188Z,62.88
2022-11-20T02:22:04.296Z,63.06
2022-11-20T02:24:31.523Z,62.97
2022-11-20T02:27:03.415Z,62.99
2022-11-20T02:29:38.574Z,62.97
2022-11-20T02:32:05.622Z,62.94
2022-11-20T02:34:33.029Z,62.82
2022-11-20T02:37:00.951Z,62.87
2022-11-20T02:39:29.533Z,62.94
2022-11-20T02:41:58.115Z,62.87
2022-11-20T02:44:25.189Z,62.93
2022-11-20T02:46:52.313Z,63.09
2022-11-20T02:49:19.914Z,62.98
2022-11-20T02:51:47.205Z,62.97
2022-11-20T02:54:14.329Z,63.16
2022-11-20T02:56:41.890Z,63.00
2022-11-20T02:59:09.143Z,62.99
2022-11-20T03:01:36.281Z,63.12
2022-11-20T03:04:03.932Z,63.09
2022-11-20T03:06:30.980Z,63.08
2022-11-20T03:08:58.013Z,63.08
2022-11-20T03:11:25.432Z,63.13
2022-11-20T03:13:52.834Z,63.18
2022-11-20T03:16:22.807Z,63.05
2022-11-20T03:18:50.623Z,63.03
2022-11-20T03:21:17.711Z,63.12
2022-11-20T03:23:44.769Z,63.11
2022-11-20T03:26:16.426Z,63.14
2022-11-20T03:28:48.260Z,63.17
2022-11-20T03:31:17.871Z,63.13
2022-11-20T03:33:45.198Z,63.18
2022-11-20T03:36:14.857Z,62.96
2022-11-20T03:38:42.674Z,63.03
2022-11-20T03:41:22.855Z,63.15
2022-11-20T03:43:51.645Z,63.29
2022-11-20T03:46:18.871Z,63.10
2022-11-20T03:48:51.147Z,63.24
2022-11-20T03:51:29.966Z,63.17
2022-11-20T03:53:59.244Z,63.25
2022-11-20T03:56:29.530Z,63.33
2022-11-20T03:58:56.902Z,63.25
2022-11-20T04:01:27.034Z,63.34
2022-11-20T04:03:55.833Z,63.12
2022-11-20T04:06:25.748Z,63.10
2022-11-20T04:08:54.991Z,63.07
2022-11-20T04:11:26.532Z,63.08
2022-11-20T04:13:56.544Z,63.13
2022-11-20T04:16:25.332Z,63.27
2022-11-20T04:18:57.986Z,63.24
2022-11-20T04:21:26.548Z,63.28
2022-11-20T04:23:54.726Z,63.44
2022-11-20T04:26:23.662Z,63.41
2022-11-20T04:28:51.300Z,63.28
2022-11-20T04:31:21.656Z,63.29
2022-11-20T04:33:48.774Z,63.26
2022-11-20T04:36:18.972Z,63.14
2022-11-20T04:38:47.023Z,63.18
2022-11-20T04:41:19.494Z,63.21
2022-11-20T04:43:51.789Z,63.32
2022-11-20T04:46:20.323Z,63.22
2022-11-20T04:48:48.578Z,63.08
2022-11-20T04:51:15.673Z,63.14
2022-11-20T04:53:42.801Z,63.24
2022-11-20T04:56:11.818Z,63.42
2022-11-20T04:58:39.638Z,63.29
2022-11-20T05:01:07.706Z,63.28
2022-11-20T05:03:38.470Z,63.38
2022-11-20T05:06:09.922Z,63.32
2022-11-20T05:08:36.967Z,63.19
2022-11-20T05:11:06.242Z,63.35
2022-11-20T05:13:33.353Z,63.27
2022-11-20T05:16:05.022Z,63.32
2022-11-20T05:18:32.406Z,63.38
2022-11-20T05:20:59.915Z,63.54
2022-11-20T05:23:27.037Z,63.30
2022-11-20T05:25:59.444Z,63.41
2022-11-20T05:28:28.864Z,63.55
2022-11-20T05:30:56.093Z,63.54
2022-11-20T05:33:23.476Z,63.63
2022-11-20T05:35:50.708Z,63.47
2022-11-20T05:38:17.748Z,63.40
2022-11-20T05:40:44.899Z,63.43
2022-11-20T05:43:11.973Z,63.52
2022-11-20T05:45:39.097Z,63.38
2022-11-20T05:48:06.222Z,63.67
2022-11-20T05:50:33.220Z,63.55
2022-11-20T05:53:00.858Z,63.60
2022-11-20T05:55:28.939Z,63.73
2022-11-20T05:57:56.421Z,63.49
2022-11-20T06:00:23.590Z,63.52
2022-11-20T06:02:50.716Z,63.46
2022-11-20T06:05:17.863Z,63.64
2022-11-20T06:07:45.042Z,63.76
2022-11-20T06:10:12.430Z,63.78
2022-11-20T06:12:39.469Z,63.74
2022-11-20T06:15:07.337Z,63.61
2022-11-20T06:17:34.437Z,63.49
2022-11-20T06:20:01.919Z,63.54
2022-11-20T06:22:28.992Z,63.68
2022-11-20T06:24:55.965Z,63.69
2022-11-20T06:27:23.063Z,63.57
2022-11-20T06:29:50.111Z,63.78
2022-11-20T06:32:17.137Z,63.66
2022-11-20T06:34:44.745Z,63.56
2022-11-20T06:37:11.770Z,63.68
2022-11-20T06:39:38.817Z,63.57
2022-11-20T06:42:05.889Z,63.49
2022-11-20T06:44:32.964Z,63.66
2022-11-20T06:46:59.986Z,63.65
2022-11-20T06:49:27.034Z,63.63
2022-11-20T06:51:54.182Z,63.60
2022-11-20T06:54:21.217Z,63.76
2022-11-20T06:56:49.204Z,63.77
2022-11-20T06:59:16.330Z,63.83
2022-11-20T07:01:43.325Z,63.75
2022-11-20T07:04:10.400Z,63.90
2022-11-20T07:06:37.522Z,63.80
2022-11-20T07:09:07.421Z,63.93
2022-11-20T07:11:38.506Z,63.92
2022-11-20T07:14:05.633Z,63.92
2022-11-20T07:16:32.679Z,63.78
2022-11-20T07:18:59.730Z,63.72
2022-11-20T07:21:26.853Z,63.90
2022-11-20T07:23:53.901Z,63.91
2022-11-20T07:26:21.129Z,63.90
2022-11-20T07:28:48.152Z,63.86
2022-11-20T07:31:19.165Z,63.74
2022-11-20T07:33:47.393Z,63.82
2022-11-20T07:36:14.443Z,63.94
2022-11-20T07:38:41.491Z,64.09
2022-11-20T07:41:08.492Z,64.12
2022-11-20T07:43:40.864Z,64.05
2022-11-20T07:46:08.344Z,64.01
2022-11-20T07:48:35.342Z,64.00
2022-11-20T07:51:02.519Z,63.92
2022-11-20T07:53:29.642Z,63.88
2022-11-20T07:56:01.015Z,63.97
2022-11-20T07:58:30.495Z,64.01
2022-11-20T08:00:57.658Z,63.81
2022-11-20T08:03:25.828Z,64.13
2022-11-20T08:05:53.557Z,64.14
2022-11-20T08:08:21.671Z,64.13
2022-11-20T08:10:48.693Z,64.14
2022-11-20T08:13:34.417Z,64.12
2022-11-20T08:16:01.465Z,64.04
2022-11-20T08:18:31.773Z,64.10
2022-11-20T08:21:03.776Z,64.02
2022-11-20T08:23:31.321Z,63.92
2022-11-20T08:25:58.569Z,64.00
2022-11-20T08:28:25.623Z,64.06
2022-11-20T08:30:52.663Z,63.99
2022-11-20T08:33:19.915Z,64.09
2022-11-20T08:35:47.184Z,64.26
2022-11-20T08:38:14.248Z,64.33
2022-11-20T08:40:41.309Z,64.20
2022-11-20T08:43:08.391Z,64.18
2022-11-20T08:45:35.721Z,64.16
2022-11-20T08:48:06.494Z,64.18
2022-11-20T08:50:34.133Z,64.23
2022-11-20T08:53:07.589Z,64.04
2022-11-20T08:55:36.741Z,64.18
2022-11-20T08:58:07.654Z,64.30
2022-11-20T09:00:35.302Z,64.31
2022-11-20T09:03:02.791Z,64.37
2022-11-20T09:05:30.072Z,64.38
2022-11-20T09:07:58.455Z,64.29
2022-11-20T09:10:26.227Z,64.41
2022-11-20T09:12:53.781Z,64.45
2022-11-20T09:15:21.090Z,64.41
2022-11-20T09:17:59.704Z,64.52
2022-11-20T09:20:30.112Z,64.37
2022-11-20T09:22:58.280Z,64.35
2022-11-20T09:25:25.686Z,64.39
2022-11-20T09:27:59.481Z,64.37
2022-11-20T09:30:27.389Z,64.40
2022-11-20T09:32:54.771Z,64.47
2022-11-20T09:35:21.821Z,64.55
2022-11-20T09:37:48.941Z,64.43
2022-11-20T09:40:22.806Z,64.35
2022-11-20T09:43:13.580Z,64.32
2022-11-20T09:46:07.174Z,64.41
2022-11-20T09:48:58.772Z,64.48
2022-11-20T09:51:54.186Z,64.46
2022-11-20T09:54:23.846Z,64.47
2022-11-20T09:57:04.359Z,64.64
2022-11-20T09:59:43.157Z,64.68
2022-11-20T10:02:25.808Z,64.61
2022-11-20T10:05:08.079Z,64.68
2022-11-20T10:07:42.700Z,64.71
2022-11-20T10:10:27.852Z,64.69
2022-11-20T10:13:13.637Z,64.58
2022-11-20T10:16:07.413Z,64.55
2022-11-20T10:18:34.461Z,64.49
2022-11-20T10:21:17.534Z,64.55
2022-11-20T10:23:56.589Z,64.57
2022-11-20T10:26:31.984Z,64.68
2022-11-20T10:29:11.068Z,64.77
2022-11-20T10:31:41.755Z,64.74
2022-11-20T10:34:23.446Z,64.83
2022-11-20T10:37:14.172Z,64.74
2022-11-20T10:39:59.570Z,64.54
2022-11-20T10:42:45.412Z,64.44
2022-11-20T10:45:30.610Z,64.58
2022-11-20T10:48:12.736Z,64.70
2022-11-20T10:50:52.591Z,64.86
2022-11-20T10:53:41.826Z,64.90
2022-11-20T10:56:18.578Z,64.99
2022-11-20T10:58:50.008Z,65.04
2022-11-20T11:01:19.830Z,64.84
2022-11-20T11:03:47.403Z,64.80
2022-11-20T11:06:27.867Z,64.78
2022-11-20T11:09:00.280Z,64.81
2022-11-20T11:11:30.742Z,64.80
2022-11-20T11:14:08.086Z,64.76
2022-11-20T11:16:35.590Z,64.81
2022-11-20T11:19:14.325Z,64.83
2022-11-20T11:21:53.858Z,64.92
2022-11-20T11:24:41.582Z,64.83
2022-11-20T11:27:19.021Z,64.98
2022-11-20T11:29:47.382Z,64.92
2022-11-20T11:32:22.443Z,64.92
2022-11-20T11:35:05.578Z,64.74
2022-11-20T11:37:38.608Z,64.87
2022-11-20T11:40:24.746Z,64.70
2022-11-20T11:42:59.510Z,64.74
2022-11-20T11:45:27.352Z,64.83
2022-11-20T11:47:58.114Z,64.93
2022-11-20T11:50:27.283Z,64.84
2022-11-20T11:53:14.531Z,64.71
2022-11-20T11:55:51.048Z,64.95
2022-11-20T11:58:45.439Z,64.89
2022-11-20T12:01:32.877Z,64.63
2022-11-20T12:04:22.389Z,64.71
2022-11-20T12:06:57.663Z,64.69
2022-11-20T12:09:38.732Z,64.80
2022-11-20T12:12:12.617Z,64.82
2022-11-20T12:14:44.170Z,64.83
2022-11-20T12:17:13.548Z,64.90
2022-11-20T12:19:41.159Z,64.99
2022-11-20T12:22:44.792Z,65.02
2022-11-20T12:25:30.219Z,65.09
2022-11-20T12:28:19.103Z,64.98
2022-11-20T12:31:20.459Z,64.95
2022-11-20T12:33:52.088Z,64.95
2022-11-20T12:36:21.823Z,64.88
2022-11-20T12:38:57.626Z,64.97
2022-11-20T12:42:12.574Z,64.76
2022-11-20T12:45:10.342Z,64.87
2022-11-20T12:47:48.093Z,64.97
2022-11-20T12:50:47.590Z,64.94
2022-11-20T12:53:37.995Z,64.95
2022-11-20T12:56:53.403Z,64.91
2022-11-20T12:59:55.089Z,65.02
2022-11-20T13:02:55.602Z,65.03
2022-11-20T13:05:38.235Z,65.05
2022-11-20T13:08:19.843Z,64.98
2022-11-20T13:10:50.072Z,65.12
2022-11-20T13:13:24.621Z,64.92
2022-11-20T13:16:02.603Z,64.93
2022-11-20T13:18:35.204Z,65.03
2022-11-20T13:21:02.356Z,65.13
2022-11-20T13:23:29.890Z,65.14
2022-11-20T13:26:21.490Z,65.12
2022-11-20T13:29:01.188Z,64.97
2022-11-20T13:31:35.959Z,65.10
2022-11-20T13:34:06.851Z,65.12
2022-11-20T13:36:36.115Z,65.03
2022-11-20T13:39:04.302Z,64.94
2022-11-20T13:41:40.640Z,65.05
2022-11-20T13:44:26.275Z,65.00
2022-11-20T13:46:53.452Z,64.97
2022-11-20T13:49:26.592Z,64.98
2022-11-20T13:52:19.567Z,65.11
2022-11-20T13:55:02.317Z,64.97
2022-11-20T13:58:20.307Z,65.07
2022-11-20T14:00:56.626Z,65.08
2022-11-20T14:03:51.074Z,65.11
2022-11-20T14:06:22.772Z,65.10
2022-11-20T14:08:50.181Z,65.11
2022-11-20T14:11:21.169Z,65.09
2022-11-20T14:13:59.327Z,65.09
2022-11-20T14:16:29.626Z,65.24
2022-11-20T14:18:58.032Z,65.19
2022-11-20T14:21:30.608Z,65.31
2022-11-20T14:24:07.767Z,65.20
2022-11-20T14:26:35.236Z,65.22
2022-11-20T14:29:02.479Z,65.25
2022-11-20T14:31:29.865Z,65.12
2022-11-20T14:33:57.727Z,65.10
2022-11-20T14:36:26.786Z,65.17
2022-11-20T14:38:54.922Z,65.17
2022-11-20T14:41:24.661Z,65.19
2022-11-20T14:43:59.951Z,65.31
2022-11-20T14:46:28.662Z,65.34
2022-11-20T14:48:58.294Z,65.37
2022-11-20T14:51:32.285Z,65.23
2022-11-20T14:54:16.693Z,65.20
2022-11-20T14:56:55.905Z,65.21
2022-11-20T14:59:28.599Z,65.13
2022-11-20T15:02:11.908Z,65.20
2022-11-20T15:04:58.282Z,65.18
2022-11-20T15:07:47.091Z,65.29
2022-11-20T15:10:22.671Z,65.33
2022-11-20T15:12:51.385Z,65.31
2022-11-20T15:15:33.732Z,65.33
2022-11-20T15:18:01.192Z,65.41
2022-11-20T15:20:33.433Z,65.39
2022-11-20T15:23:00.867Z,65.37
2022-11-20T15:25:29.295Z,65.38
2022-11-20T15:27:57.499Z,65.33
2022-11-20T15:30:25.315Z,65.36
2022-11-20T15:32:52.642Z,65.44
2022-11-20T15:35:19.769Z,65.44
2022-11-20T15:37:47.079Z,65.55
2022-11-20T15:40:14.147Z,65.47
2022-11-20T15:43:01.189Z,65.57
2022-11-20T15:45:37.401Z,65.53
2022-11-20T15:48:04.833Z,65.46
2022-11-20T15:50:40.202Z,65.48
2022-11-20T15:53:07.352Z,65.49
2022-11-20T15:55:34.326Z,65.43
2022-11-20T15:58:02.116Z,65.54
2022-11-20T16:00:29.187Z,65.59
2022-11-20T16:02:56.212Z,65.66
2022-11-20T16:05:24.309Z,65.55
2022-11-20T16:07:52.252Z,65.65
2022-11-20T16:10:19.224Z,65.77
2022-11-20T16:13:05.164Z,65.72
2022-11-20T16:15:47.499Z,65.69
2022-11-20T16:18:20.019Z,65.66
2022-11-20T16:20:49.606Z,65.68
2022-11-20T16:23:16.861Z,65.62
2022-11-20T16:25:44.598Z,65.60
2022-11-20T16:28:17.451Z,65.54
2022-11-20T16:30:46.171Z,65.63
2022-11-20T16:33:15.862Z,65.74
2022-11-20T16:35:42.876Z,65.64
2022-11-20T16:38:10.719Z,65.70
2022-11-20T16:40:37.792Z,65.71
2022-11-20T16:43:10.707Z,65.72
2022-11-20T16:45:42.850Z,65.72
2022-11-20T16:48:13.388Z,65.61
2022-11-20T16:50:53.686Z,65.61
2022-11-20T16:53:22.061Z,65.67
2022-11-20T16:55:49.165Z,65.74
2022-11-20T16:58:16.543Z,65.73
2022-11-20T17:00:49.945Z,65.66
2022-11-20T17:03:19.523Z,65.82
2022-11-20T17:05:46.550Z,65.88
2022-11-20T17:08:13.595Z,65.91
2022-11-20T17:10:40.622Z,65.86
2022-11-20T17:13:08.485Z,65.90
2022-11-20T17:15:35.533Z,65.83
2022-11-20T17:18:03.760Z,65.78
2022-11-20T17:20:32.421Z,65.65
2022-11-20T17:22:59.469Z,65.86
2022-11-20T17:25:26.516Z,65.83
2022-11-20T17:27:54.640Z,65.90
2022-11-20T17:30:21.665Z,65.85
2022-11-20T17:32:48.683Z,65.66
2022-11-20T17:35:15.860Z,65.83
2022-11-20T17:37:42.860Z,65.89
2022-11-20T17:40:10.136Z,65.82
2022-11-20T17:42:37.234Z,65.77
2022-11-20T17:45:05.016Z,65.74
2022-11-20T17:47:32.009Z,65.75
2022-11-20T17:49:59.074Z,65.87
2022-11-20T17:52:26.606Z,65.85
2022-11-20T17:54:56.138Z,65.77
2022-11-20T17:57:42.719Z,65.82
2022-11-20T18:00:13.206Z,65.82
2022-11-20T18:02:40.301Z,65.81
2022-11-20T18:05:07.754Z,65.80
2022-11-20T18:07:41.296Z,65.74
2022-11-20T18:10:09.477Z,65.79
2022-11-20T18:12:36.526Z,65.87
2022-11-20T18:15:03.933Z,65.69
2022-11-20T18:17:31.037Z,65.62
2022-11-20T18:20:26.753Z,65.49
2022-11-20T18:22:45.302Z,65.57
2022-11-20T18:25:12.274Z,65.61
2022-11-20T18:27:39.323Z,65.65
2022-11-20T18:30:07.416Z,65.70
2022-11-20T18:32:36.019Z,65.68
2022-11-20T18:35:03.870Z,65.68
2022-11-20T18:37:32.159Z,65.71
2022-11-20T18:39:59.350Z,65.58
2022-11-20T18:42:45.190Z,65.56
2022-11-20T18:45:12.288Z,65.53
2022-11-20T18:47:40.369Z,65.48
2022-11-20T18:50:08.921Z,65.47
2022-11-20T18:52:44.871Z,65.57
2022-11-20T18:55:12.874Z,65.68
2022-11-20T18:57:40.389Z,65.61
2022-11-20T19:00:09.854Z,65.51
2022-11-20T19:02:43.051Z,65.48
2022-11-20T19:05:14.499Z,65.59
2022-11-20T19:07:42.553Z,65.69
2022-11-20T19:10:10.076Z,65.80
2022-11-20T19:12:37.339Z,65.85
2022-11-20T19:15:04.833Z,65.99
2022-11-20T19:17:32.842Z,65.97
2022-11-20T19:20:00.359Z,66.00
2022-11-20T19:22:27.452Z,66.00
2022-11-20T19:24:54.524Z,65.93
2022-11-20T19:27:21.574Z,65.90
2022-11-20T19:29:48.954Z,65.79
2022-11-20T19:32:16.640Z,65.84
2022-11-20T19:34:43.894Z,65.77
2022-11-20T19:37:10.995Z,65.81
2022-11-20T19:39:38.093Z,65.77
2022-11-20T19:42:05.525Z,65.90
2022-11-20T19:44:33.174Z,65.80
2022-11-20T19:47:00.901Z,65.88
2022-11-20T19:49:27.976Z,65.91
2022-11-20T19:51:55.130Z,65.91
2022-11-20T19:54:22.252Z,65.84
2022-11-20T19:56:50.645Z,65.74
2022-11-20T19:59:18.031Z,65.82
2022-11-20T20:01:45.408Z,65.86
2022-11-20T20:04:12.635Z,65.81
2022-11-20T20:06:40.360Z,65.83
2022-11-20T20:09:09.301Z,65.66
2022-11-20T20:11:36.683Z,65.60
2022-11-20T20:14:06.035Z,65.54
2022-11-20T20:16:34.414Z,65.64
2022-11-20T20:19:03.332Z,65.40
2022-11-20T20:21:31.915Z,65.46
2022-11-20T20:23:59.700Z,65.51
2022-11-20T20:26:29.570Z,65.50
2022-11-20T20:28:56.697Z,65.38
2022-11-20T20:31:25.895Z,65.50
2022-11-20T20:33:53.200Z,65.54
2022-11-20T20:36:22.088Z,65.64
2022-11-20T20:38:55.156Z,65.65
2022-11-20T20:41:23.816Z,65.52
2022-11-20T20:44:09.627Z,65.60
2022-11-20T20:46:36.726Z,65.70
2022-11-20T20:49:03.928Z,65.66
2022-11-20T20:51:31.309Z,65.76
2022-11-20T20:53:58.376Z,65.51
2022-11-20T20:56:25.521Z,65.49
2022-11-20T20:58:52.637Z,65.49
2022-11-20T21:01:20.509Z,65.45
2022-11-20T21:03:47.631Z,65.40
2022-11-20T21:06:14.929Z,65.30
2022-11-20T21:08:44.249Z,65.24
2022-11-20T21:11:14.839Z,65.03
2022-11-20T21:13:43.665Z,65.09
2022-11-20T21:16:12.517Z,64.99
2022-11-20T21:18:39.555Z,65.25
2022-11-20T21:21:27.712Z,65.22
2022-11-20T21:23:54.760Z,65.21
2022-11-20T21:26:22.096Z,64.99
2022-11-20T21:28:50.088Z,65.18
2022-11-20T21:31:22.259Z,65.28
2022-11-20T21:33:51.275Z,65.08
2022-11-20T21:36:20.597Z,64.98
2022-11-20T21:38:48.439Z,65.12
2022-11-20T21:41:15.798Z,65.08
2022-11-20T21:43:44.352Z,65.12
2022-11-20T21:46:14.011Z,65.11
2022-11-20T21:48:42.802Z,65.01
2022-11-20T21:51:12.868Z,65.08
2022-11-20T21:53:40.327Z,65.10
2022-11-20T21:56:08.757Z,65.20
2022-11-20T21:58:37.367Z,65.20
2022-11-20T22:01:12.063Z,65.28
2022-11-20T22:03:39.837Z,65.19
2022-11-20T22:06:08.393Z,65.30
2022-11-20T22:08:37.515Z,65.14
2022-11-20T22:11:07.379Z,65.17
2022-11-20T22:13:53.577Z,65.20
2022-11-20T22:16:21.828Z,65.19
2022-11-20T22:18:51.063Z,65.17
2022-11-20T22:21:20.432Z,65.06
2022-11-20T22:23:47.968Z,65.04
2022-11-20T22:26:20.543Z,65.11
2022-11-20T22:28:50.024Z,65.07
2022-11-20T22:31:18.193Z,64.99
2022-11-20T22:33:45.565Z,64.96
2022-11-20T22:36:18.313Z,64.95
2022-11-20T22:38:45.921Z,65.00
2022-11-20T22:41:12.943Z,65.12
2022-11-20T22:43:41.486Z,65.17
2022-11-20T22:46:09.477Z,65.09
2022-11-20T22:48:39.387Z,65.08
2022-11-20T22:51:14.968Z,65.00
2022-11-20T22:53:42.826Z,64.98
2022-11-20T22:56:14.164Z,64.99
2022-11-20T22:58:43.555Z,64.96
2022-11-20T23:01:13.279Z,65.07
2022-11-20T23:03:42.650Z,65.08
2022-11-20T23:06:10.454Z,65.01
2022-11-20T23:08:38.966Z,64.91
2022-11-20T23:11:11.408Z,64.88
2022-11-20T23:13:39.591Z,65.04
2022-11-20T23:16:12.450Z,65.00
2022-11-20T23:18:39.957Z,65.04
2022-11-20T23:21:08.850Z,65.12
2022-11-20T23:23:36.436Z,65.08
2022-11-20T23:26:11.706Z,65.15
2022-11-20T23:28:39.870Z,65.13
2022-11-20T23:31:07.999Z,64.92
2022-11-20T23:33:40.449Z,65.10
2022-11-20T23:36:08.447Z,64.97
2022-11-20T23:38:35.928Z,64.97
2022-11-20T23:41:03.852Z,65.07
2022-11-20T23:43:30.975Z,64.87
2022-11-20T23:45:59.606Z,64.96
2022-11-20T23:48:29.190Z,64.96
2022-11-20T23:50:56.980Z,64.76
2022-11-20T23:53:24.719Z,64.68
2022-11-20T23:55:57.784Z,64.81
2022-11-20T23:58:26.420Z,64.62
